Аэропорт: Алыкель. Норильск

ICAO: UOOO

METAR:
2019/05/26 14:00
UOOO 261400Z 03004MPS CAVOK 00/M02 Q1004 R19/29//50 NOSIG RMK QFE737/0982
METAR:
2019/05/26 12:21
TAF UOOO 261101Z 2612/2712 36003G08MPS 6000 BKN011CB 
      TEMPO 2612/2618 03003G09MPS 1000 -SHSN BR FU SCT004CB 
      BECMG 2618/2620 33003G10MPS 
      TEMPO 2618/2706 0700 SHSN FZFG VV002 
      TEMPO 2706/2712 1000 SHSNRA SCT004CB